KM 95 CFL Airport


Codes: FZIG/
Name: KM 95 CFL Airport
City: KM 95 CFL
Country: Congo [DRC]
Elevation: 1591 ft.

Photos at KM 95 CFL Airport


   Photos courtesy of SpottingLog. You can add your own sightings and photos by signing up for a free trial today.



No photos found.

Weather at KM 95 CFL Airport


Time (UTC)DescriptionTempratureWindCloud coverageVisibilityPressureHumidity
23-May-2024 21:00Overcast Clouds23°C2 mph, NW100%10000m1012hPa90%
24-May-2024 00:00Light Rain23°C2 mph, N100%10000m1012hPa91%
24-May-2024 03:00Moderate Rain22°C2 mph, E100%6087m1013hPa96%
24-May-2024 06:00Light Rain22°C4 mph, NE100%10000m1014hPa99%
24-May-2024 09:00Light Rain22°C2 mph, NE100%10000m1014hPa99%
24-May-2024 12:00Light Rain22°C2 mph, NE100%10000m1011hPa97%
24-May-2024 15:00Overcast Clouds23°C0 mph, SW100%10000m1011hPa93%
24-May-2024 18:00Overcast Clouds22°C2 mph, NE100%10000m1012hPa96%
24-May-2024 21:00Overcast Clouds22°C2 mph, N92%10000m1012hPa97%
25-May-2024 00:00Overcast Clouds21°C2 mph, NE96%10000m1011hPa98%
25-May-2024 03:00Overcast Clouds21°C2 mph, NE99%10000m1012hPa97%
25-May-2024 06:00Broken Clouds24°C2 mph, N83%10000m1014hPa79%
25-May-2024 09:00Broken Clouds31°C2 mph, NW55%10000m1013hPa50%
25-May-2024 12:00Scattered Clouds34°C2 mph, NW49%10000m1010hPa41%
25-May-2024 15:00Broken Clouds29°C4 mph, NW68%10000m1009hPa61%
25-May-2024 18:00Light Rain22°C2 mph, NE53%10000m1012hPa94%
25-May-2024 21:00Light Rain22°C2 mph, NE100%10000m1014hPa99%
26-May-2024 00:00Light Rain21°C2 mph, NE100%10000m1013hPa99%
26-May-2024 03:00Light Rain21°C2 mph, N100%10000m1013hPa99%
26-May-2024 06:00Overcast Clouds22°C2 mph, NE100%10000m1015hPa97%
26-May-2024 09:00Overcast Clouds27°C4 mph, NE95%10000m1015hPa68%
26-May-2024 12:00Overcast Clouds27°C4 mph, N96%10000m1012hPa67%
26-May-2024 15:00Overcast Clouds25°C2 mph, N91%10000m1011hPa76%
26-May-2024 18:00Broken Clouds23°C2 mph, NE78%10000m1012hPa84%
26-May-2024 21:00Light Rain22°C2 mph, E59%10000m1013hPa91%
27-May-2024 00:00Light Rain21°C0 mph, NW65%10000m1013hPa94%
27-May-2024 03:00Overcast Clouds21°C0 mph, N95%10000m1013hPa94%
27-May-2024 06:00Overcast Clouds24°C2 mph, E97%10000m1014hPa84%
27-May-2024 09:00Overcast Clouds32°C2 mph, E90%10000m1013hPa48%
27-May-2024 12:00Overcast Clouds35°C2 mph, E94%10000m1010hPa37%
27-May-2024 15:00Overcast Clouds31°C2 mph, SE100%10000m1009hPa55%
27-May-2024 18:00Overcast Clouds26°C2 mph, S97%10000m1011hPa71%
27-May-2024 21:00Light Rain24°C2 mph, SE86%10000m1012hPa79%
28-May-2024 00:00Overcast Clouds23°C2 mph, S93%10000m1011hPa87%
28-May-2024 03:00Broken Clouds22°C2 mph, SW64%10000m1012hPa91%
28-May-2024 06:00Broken Clouds25°C2 mph, SE65%10000m1013hPa74%
28-May-2024 09:00Overcast Clouds31°C2 mph, E99%10000m1013hPa53%
28-May-2024 12:00Overcast Clouds34°C2 mph, S99%10000m1009hPa43%
28-May-2024 15:00Overcast Clouds33°C2 mph, S94%10000m1008hPa49%
28-May-2024 18:00Overcast Clouds26°C2 mph, S97%10000m1009hPa68%